Time;durP1;ratioP1;P1;durP2;ratioP2;P2;SDS_P1;SDS_P2;PMS_P1;PMS_P2;Temp;Humidity;BMP_temperature;BMP_pressure;BME280_temperature;BME280_humidity;BME280_pressure;Samples;Min_cycle;Max_cycle;Signal;HPM_P1;HPM_P2
2022/01/23 00:02:14;;;;;;;45.30;31.05;;;;;;;4.19;94.49;103507.16;5046285;28;20370;-61
2022/01/23 00:04:40;;;;;;;44.28;30.90;;;;;;;4.15;94.08;103507.22;5044102;28;20050;-60
2022/01/23 00:07:08;;;;;;;44.05;30.35;;;;;;;4.17;94.01;103500.19;5047853;28;20033;-61
2022/01/23 00:09:34;;;;;;;43.63;29.33;;;;;;;4.20;93.92;103504.47;5054613;28;20082;-61
2022/01/23 00:12:04;;;;;;;41.47;29.08;;;;;;;4.23;93.19;103500.84;5051328;28;20025;-61
2022/01/23 00:17:23;;;;;;;45.63;29.05;;;;;;;4.20;93.79;103498.34;5047283;28;20191;-61
2022/01/23 00:19:53;;;;;;;41.55;29.05;;;;;;;4.22;93.94;103496.50;5047997;28;20033;-61
2022/01/23 00:22:28;;;;;;;42.60;29.05;;;;;;;4.14;93.44;103483.63;5049629;28;20476;-61
2022/01/23 00:32:49;;;;;;;42.08;28.10;;;;;;;4.12;93.83;103486.34;5051291;28;20072;-62
2022/01/23 00:35:15;;;;;;;43.05;28.67;;;;;;;4.14;93.85;103483.63;5049640;28;20044;-61
2022/01/23 00:37:40;;;;;;;42.60;28.33;;;;;;;4.13;94.07;103474.06;5049582;28;20075;-61
2022/01/23 00:40:07;;;;;;;44.35;29.70;;;;;;;4.12;94.65;103467.97;5048816;28;20086;-61
2022/01/23 00:42:33;;;;;;;44.22;28.67;;;;;;;4.13;94.59;103482.81;5050838;28;20036;-62
2022/01/23 00:47:42;;;;;;;41.17;28.63;;;;;;;4.13;94.33;103476.69;5049948;28;20064;-61
2022/01/23 00:50:08;;;;;;;45.13;29.25;;;;;;;4.13;94.16;103477.56;5044837;28;20021;-61
2022/01/23 00:52:33;;;;;;;42.38;28.10;;;;;;;4.13;94.17;103467.03;5046932;28;20029;-61
2022/01/23 00:55:00;;;;;;;41.22;28.08;;;;;;;4.14;94.21;103468.75;5047591;28;20025;-61
2022/01/23 00:57:26;;;;;;;42.42;29.08;;;;;;;4.13;93.92;103477.56;5052140;28;20027;-62
2022/01/23 00:59:51;;;;;;;41.38;27.42;;;;;;;4.11;94.76;103476.75;5045368;28;20045;-62
2022/01/23 01:02:17;;;;;;;42.30;27.90;;;;;;;4.12;94.84;103475.84;5047598;28;20036;-61
2022/01/23 01:04:42;;;;;;;42.42;27.83;;;;;;;4.11;94.10;103463.63;5050508;28;20076;-61
2022/01/23 01:07:07;;;;;;;40.53;27.35;;;;;;;4.13;94.14;103477.56;5047705;28;20487;-61
2022/01/23 01:09:32;;;;;;;42.95;28.90;;;;;;;4.13;94.51;103468.81;5047462;28;20053;-61
2022/01/23 01:12:02;;;;;;;39.70;26.90;;;;;;;4.12;94.37;103465.34;5054954;28;20043;-61
2022/01/23 01:14:43;;;;;;;42.70;27.55;;;;;;;4.11;94.36;103461.00;5047545;28;20082;-61
2022/01/23 01:17:26;;;;;;;40.20;28.38;;;;;;;4.11;94.39;103473.25;5042970;28;20040;-61
2022/01/23 01:33:50;;;;;;;39.20;27.58;;;;;;;4.11;94.65;103479.38;5048321;28;20048;-62
2022/01/23 01:36:21;;;;;;;41.88;27.83;;;;;;;4.10;94.75;103479.44;5050242;28;20401;-61
2022/01/23 01:38:47;;;;;;;43.50;28.20;;;;;;;4.09;94.95;103470.69;5050470;28;20033;-61
2022/01/23 01:41:14;;;;;;;42.90;28.10;;;;;;;4.07;94.69;103474.25;5047086;28;20099;-60
2022/01/23 01:43:40;;;;;;;40.60;28.13;;;;;;;4.03;95.13;103477.00;5049245;28;20065;-61
2022/01/23 01:46:05;;;;;;;43.20;28.92;;;;;;;4.03;95.62;103481.41;5042052;28;20053;-61
2022/01/23 01:48:31;;;;;;;40.70;27.73;;;;;;;4.04;95.63;103483.09;5049157;28;20059;-61
2022/01/23 01:50:58;;;;;;;43.28;28.58;;;;;;;4.04;95.15;103485.72;5046651;28;20503;-61
2022/01/23 01:53:23;;;;;;;43.88;28.10;;;;;;;4.04;95.14;103488.34;5042003;28;20029;-61
2022/01/23 01:55:53;;;;;;;38.85;27.77;;;;;;;4.04;95.77;103488.34;5046149;28;20025;-61
2022/01/23 02:09:26;;;;;;;40.42;26.73;;;;;;;4.02;95.19;103488.44;5048649;28;20035;-61
2022/01/23 02:12:17;;;;;;;;;;;;;;;4.12;94.46;103491.59;5050074;28;20550;-61
2022/01/23 02:15:09;;;;;;;39.50;25.90;;;;;;;4.05;94.75;103484.84;5041167;28;20391;-61
2022/01/23 02:50:43;;;;;;;37.97;25.40;;;;;;;4.01;95.25;103456.97;4984794;28;20045;-61
2022/01/23 02:55:54;;;;;;;37.67;24.55;;;;;;;4.04;94.87;103443.72;5044219;28;20049;-62
2022/01/23 02:58:22;;;;;;;39.50;26.42;;;;;;;3.96;95.59;103437.88;5041771;28;20025;-62
2022/01/23 03:00:50;;;;;;;39.97;25.90;;;;;;;3.96;95.19;103448.41;5042954;28;20041;-62
2022/01/23 03:03:23;;;;;;;37.55;25.70;;;;;;;3.99;95.66;103443.03;5044199;28;20411;-61
2022/01/23 03:06:18;;;;;;;40.10;25.73;;;;;;;3.99;95.25;103437.81;5034599;28;20124;-62
2022/01/23 03:14:20;;;;;;;39.58;25.42;;;;;;;4.00;95.38;103450.00;5041725;28;20072;-61
2022/01/23 03:25:22;;;;;;;40.38;25.63;;;;;;;3.97;95.51;103452.72;5043569;28;20032;-61
2022/01/23 03:30:50;;;;;;;39.80;26.13;;;;;;;3.99;95.11;103458.81;5054358;28;20087;-61
2022/01/23 03:33:15;;;;;;;40.42;26.58;;;;;;;3.99;95.73;103458.81;5039173;28;20049;-61
2022/01/23 03:35:41;;;;;;;41.50;26.88;;;;;;;3.98;95.36;103468.44;5035844;28;20423;-61
2022/01/23 03:38:06;;;;;;;39.80;25.65;;;;;;;4.02;95.10;103463.94;5047858;28;20090;-62
2022/01/23 03:40:32;;;;;;;41.05;26.55;;;;;;;4.01;95.52;103467.47;5050689;28;20029;-61
2022/01/23 03:43:08;;;;;;;42.17;26.73;;;;;;;4.01;94.94;103470.09;5050475;28;20041;-62
2022/01/23 03:49:31;;;;;;;38.40;25.90;;;;;;;3.97;95.01;103461.47;5053193;28;20142;-61
2022/01/23 03:50:47;;;;;;;39.88;26.83;;;;;;;3.99;94.96;103466.69;5052481;28;20045;-61
2022/01/23 03:53:13;;;;;;;42.58;27.05;;;;;;;3.99;95.09;103459.63;5040448;28;20024;-61
2022/01/23 03:55:39;;;;;;;43.58;27.65;;;;;;;4.01;95.23;103472.72;5050664;28;20040;-62
2022/01/23 03:58:04;;;;;;;43.10;26.45;;;;;;;4.02;95.66;103469.19;5053585;28;20025;-61
2022/01/23 04:00:30;;;;;;;41.20;26.30;;;;;;;4.01;95.35;103473.56;5052784;28;20472;-61
2022/01/23 04:02:55;;;;;;;42.22;26.67;;;;;;;4.02;94.97;103475.31;5055495;28;20028;-61
2022/01/23 04:05:20;;;;;;;45.22;27.83;;;;;;;4.04;94.80;103469.97;5056498;28;20451;-61
2022/01/23 04:07:46;;;;;;;40.45;26.88;;;;;;;4.06;95.05;103470.81;5049613;28;20037;-62
2022/01/23 04:10:14;;;;;;;40.70;26.52;;;;;;;4.06;95.22;103476.06;5053250;28;20029;-61
2022/01/23 04:12:57;;;;;;;43.33;27.00;;;;;;;4.03;94.87;103477.00;5054396;28;20481;-61
2022/01/23 04:20:48;;;;;;;41.35;27.20;;;;;;;3.96;95.72;103483.41;5048205;28;20149;-61
2022/01/23 04:31:44;;;;;;;43.85;27.65;;;;;;;3.99;95.06;103487.69;5046400;28;20431;-61
2022/01/23 04:35:07;;;;;;;41.63;27.10;;;;;;;4.03;95.63;103489.28;5050346;28;20453;-62
2022/01/23 04:45:31;;;;;;;47.35;29.40;;;;;;;3.95;95.34;103471.16;5042208;28;20044;-61
2022/01/23 04:59:34;;;;;;;44.70;28.48;;;;;;;3.95;95.76;103483.44;5043800;28;20102;-61
2022/01/23 05:02:33;;;;;;;46.17;28.55;;;;;;;3.84;96.51;103494.31;5042087;28;20078;-62
2022/01/23 05:04:53;;;;;;;44.60;28.45;;;;;;;3.84;96.16;103489.91;5036865;28;20050;-61
2022/01/23 05:07:19;;;;;;;44.95;28.77;;;;;;;3.87;96.74;103487.19;5042901;28;20105;-62
2022/01/23 05:09:44;;;;;;;45.80;29.42;;;;;;;3.89;96.85;103485.34;5042824;28;20029;-61
2022/01/23 05:12:12;;;;;;;43.83;27.65;;;;;;;3.86;96.85;103479.34;5048879;28;20044;-61
2022/01/23 05:14:43;;;;;;;45.60;27.70;;;;;;;3.85;96.35;103478.50;5048098;28;20049;-61
2022/01/23 05:17:11;;;;;;;41.92;27.77;;;;;;;3.89;96.78;103485.34;5045234;28;20041;-61
2022/01/23 05:19:38;;;;;;;46.60;28.55;;;;;;;3.90;96.54;103487.06;5050149;28;20021;-61
2022/01/23 05:25:01;;;;;;;43.03;28.30;;;;;;;3.93;96.64;103480.84;5051370;28;20400;-61
2022/01/23 05:27:27;;;;;;;43.25;28.40;;;;;;;3.95;96.25;103483.44;5048829;28;20048;-61
2022/01/23 05:29:54;;;;;;;44.75;28.73;;;;;;;3.96;95.89;103490.41;5050680;28;20033;-61
2022/01/23 05:32:21;;;;;;;46.90;29.80;;;;;;;3.94;95.99;103493.06;5051217;28;20029;-61
2022/01/23 05:34:47;;;;;;;47.38;30.65;;;;;;;3.97;96.19;103489.47;5050359;28;20112;-61
2022/01/23 05:37:12;;;;;;;43.85;29.08;;;;;;;4.00;96.14;103498.13;5039700;28;20033;-61
2022/01/23 05:39:37;;;;;;;45.97;29.65;;;;;;;4.01;96.19;103501.59;5041438;28;20049;-61
2022/01/23 05:42:07;;;;;;;47.08;29.55;;;;;;;4.01;96.51;103488.47;5050877;28;20029;-61
2022/01/23 05:44:37;;;;;;;47.22;29.27;;;;;;;4.01;95.85;103483.22;5047695;28;20033;-61
2022/01/23 05:47:07;;;;;;;46.58;29.73;;;;;;;4.03;95.41;103491.91;5049192;28;20074;-61
2022/01/23 05:49:32;;;;;;;46.88;29.25;;;;;;;4.03;95.88;103494.53;5048845;28;20101;-61
2022/01/23 05:51:58;;;;;;;44.40;29.30;;;;;;;4.01;96.02;103488.47;5044548;28;20041;-62
2022/01/23 05:54:24;;;;;;;44.53;29.20;;;;;;;4.02;96.01;103487.56;5043790;28;20460;-61
2022/01/23 05:56:49;;;;;;;45.75;28.83;;;;;;;4.00;95.70;103478.91;5048764;28;20025;-61
2022/01/23 05:59:16;;;;;;;42.53;27.95;;;;;;;3.99;96.47;103477.19;5047094;28;20562;-61
2022/01/23 06:01:42;;;;;;;42.78;28.90;;;;;;;3.97;96.07;103476.34;5035405;28;20404;-61
2022/01/23 06:04:08;;;;;;;45.80;28.98;;;;;;;3.95;96.48;103475.56;5048811;28;20041;-61
2022/01/23 06:06:33;;;;;;;45.13;28.65;;;;;;;3.92;96.16;103478.28;5041915;28;20565;-61
2022/01/23 06:08:59;;;;;;;43.58;28.33;;;;;;;3.92;96.95;103488.78;5043958;28;20033;-61
2022/01/23 06:11:24;;;;;;;46.20;29.42;;;;;;;3.92;96.67;103480.91;5045405;28;20079;-61
2022/01/23 06:13:49;;;;;;;45.10;28.88;;;;;;;3.92;96.10;103478.28;5043287;28;20033;-61
2022/01/23 06:16:15;;;;;;;46.60;29.35;;;;;;;3.92;96.63;103479.16;5043598;28;20040;-61
2022/01/23 06:18:41;;;;;;;46.53;30.13;;;;;;;3.92;96.74;103484.41;5049344;28;20045;-61
2022/01/23 06:21:07;;;;;;;43.25;29.27;;;;;;;3.93;95.94;103486.09;5045637;28;20032;-61
2022/01/23 06:23:33;;;;;;;49.10;30.42;;;;;;;3.94;96.38;103490.44;5046429;28;20403;-61
2022/01/23 06:25:58;;;;;;;49.58;30.05;;;;;;;3.95;95.97;103492.16;5048593;28;20028;-62
2022/01/23 06:28:29;;;;;;;46.58;30.30;;;;;;;3.98;96.63;103488.56;5050200;28;20116;-62
2022/01/23 06:30:55;;;;;;;48.63;30.58;;;;;;;3.97;96.47;103492.97;5044275;28;20392;-62
2022/01/23 06:33:20;;;;;;;48.00;30.00;;;;;;;3.97;96.41;103492.09;5045624;28;20056;-62
2022/01/23 06:35:45;;;;;;;49.60;30.77;;;;;;;3.97;96.38;103487.72;5045117;28;20074;-62
2022/01/23 06:38:10;;;;;;;46.88;30.40;;;;;;;3.96;96.27;103480.78;5047005;28;20072;-61
2022/01/23 06:40:36;;;;;;;47.80;30.15;;;;;;;3.97;96.08;103476.34;5038018;28;20037;-62
2022/01/23 06:43:01;;;;;;;43.67;29.73;;;;;;;3.97;95.82;103487.72;5039442;28;20532;-61
2022/01/23 06:45:26;;;;;;;49.15;30.45;;;;;;;3.93;95.70;103501.00;5035802;28;20029;-62
2022/01/23 06:47:51;;;;;;;46.83;29.90;;;;;;;3.93;96.70;103506.25;5042609;28;20075;-62
2022/01/23 06:50:17;;;;;;;51.17;30.63;;;;;;;3.93;96.26;103501.88;5030948;28;20068;-62
2022/01/23 06:52:42;;;;;;;50.33;31.20;;;;;;;3.93;96.74;103501.88;5030038;28;20721;-61
2022/01/23 06:55:08;;;;;;;47.42;31.23;;;;;;;3.96;96.67;103506.16;5033076;28;20026;-61
2022/01/23 06:57:33;;;;;;;46.72;29.63;;;;;;;3.92;96.31;103502.78;5030730;28;20040;-59
2022/01/23 06:59:58;;;;;;;52.80;30.55;;;;;;;3.93;96.92;103507.13;5031745;28;20042;-61
2022/01/23 07:02:24;;;;;;;47.33;30.83;;;;;;;3.95;96.16;103499.19;5028995;28;20032;-62
2022/01/23 07:04:49;;;;;;;47.88;30.60;;;;;;;3.97;96.75;103511.34;5030732;28;20456;-60
2022/01/23 07:07:14;;;;;;;51.75;32.20;;;;;;;3.97;95.99;103513.13;5037107;28;20033;-62
2022/01/23 07:09:39;;;;;;;50.35;31.55;;;;;;;3.96;95.93;103528.03;5042644;28;20090;-62
2022/01/23 07:12:05;;;;;;;50.20;32.22;;;;;;;3.95;96.23;103528.06;5042383;28;20408;-61
2022/01/23 07:14:30;;;;;;;43.90;28.25;;;;;;;3.94;95.90;103523.75;5041863;28;20021;-61
2022/01/23 07:16:56;;;;;;;47.10;29.95;;;;;;;3.91;96.70;103522.06;5042192;28;20048;-62
2022/01/23 07:19:21;;;;;;;48.15;31.30;;;;;;;3.89;96.27;103522.13;5044275;28;20048;-62
2022/01/23 07:21:46;;;;;;;51.22;31.38;;;;;;;3.91;96.80;103524.69;5041633;28;20468;-62
2022/01/23 07:24:12;;;;;;;53.10;32.30;;;;;;;3.89;97.04;103532.63;5042609;28;20096;-62
2022/01/23 07:26:37;;;;;;;53.10;32.65;;;;;;;3.87;96.83;103534.44;5047985;28;20095;-62
2022/01/23 07:29:04;;;;;;;47.63;31.42;;;;;;;3.87;96.61;103539.69;5042996;28;20030;-61
2022/01/23 07:34:06;;;;;;;51.85;32.58;;;;;;;3.89;96.86;103558.00;5042639;28;20198;-61
2022/01/23 07:36:31;;;;;;;52.95;32.40;;;;;;;3.88;96.99;103551.91;5049840;28;20544;-63
2022/01/23 07:38:57;;;;;;;48.15;31.15;;;;;;;3.89;97.08;103556.25;5041689;28;20116;-62
2022/01/23 07:41:23;;;;;;;48.78;32.45;;;;;;;3.92;96.58;103554.41;5041211;28;20427;-63
2022/01/23 07:43:48;;;;;;;50.67;33.00;;;;;;;3.95;96.50;103552.53;5040592;28;20171;-62
2022/01/23 07:46:13;;;;;;;51.38;32.97;;;;;;;3.94;96.80;103561.34;5038931;28;20036;-61
2022/01/23 07:48:38;;;;;;;52.13;33.50;;;;;;;3.88;96.70;103567.66;5036258;28;20040;-62
2022/01/23 07:51:04;;;;;;;52.88;33.22;;;;;;;3.90;96.58;103560.59;5039656;28;20044;-62
2022/01/23 07:53:29;;;;;;;51.72;32.95;;;;;;;3.88;96.51;103562.41;5045712;28;20044;-62
2022/01/23 07:55:55;;;;;;;46.85;31.88;;;;;;;3.86;96.25;103569.44;5039943;28;20034;-61
2022/01/23 07:58:20;;;;;;;55.47;32.55;;;;;;;3.89;96.54;103564.13;5037835;28;20061;-62
2022/01/23 08:00:47;;;;;;;50.30;32.65;;;;;;;3.93;96.89;103566.63;5036554;28;20116;-63
2022/01/23 08:03:13;;;;;;;51.83;32.05;;;;;;;3.93;96.70;103569.25;5035017;28;20175;-62
2022/01/23 08:05:38;;;;;;;53.05;33.22;;;;;;;3.92;96.95;103567.53;5039593;28;20502;-62
2022/01/23 08:08:03;;;;;;;51.22;32.92;;;;;;;3.96;96.33;103563.91;5039447;28;20040;-63
2022/01/23 08:10:29;;;;;;;52.85;33.10;;;;;;;3.97;96.53;103565.63;5033973;28;20037;-60
2022/01/23 08:12:54;;;;;;;49.90;33.22;;;;;;;3.94;96.82;103560.50;5033764;28;20037;-60
2022/01/23 08:15:20;;;;;;;51.15;32.45;;;;;;;3.97;96.07;103563.00;5031130;28;20040;-61
2022/01/23 08:17:45;;;;;;;50.83;33.15;;;;;;;3.98;96.16;103562.09;5034693;28;20090;-61
2022/01/23 08:20:10;;;;;;;53.05;33.95;;;;;;;3.97;96.77;103561.25;5034020;28;20021;-62
2022/01/23 08:22:36;;;;;;;53.40;32.78;;;;;;;4.01;96.05;103567.25;5031995;28;20033;-61
2022/01/23 08:25:04;;;;;;;53.38;33.55;;;;;;;4.00;96.50;103570.78;5033144;28;20494;-62
2022/01/23 08:27:30;;;;;;;53.25;34.15;;;;;;;4.02;96.42;103568.97;5034512;28;20025;-61
2022/01/23 08:29:56;;;;;;;52.55;33.35;;;;;;;4.03;96.56;103576.81;5034452;28;20503;-62
2022/01/23 08:32:21;;;;;;;54.97;33.20;;;;;;;4.05;96.80;103576.75;5031549;28;20041;-62
2022/01/23 08:34:47;;;;;;;54.60;33.97;;;;;;;4.03;95.86;103571.56;5032434;28;20029;-63
2022/01/23 08:37:12;;;;;;;53.85;34.53;;;;;;;3.99;96.46;103577.81;5034363;28;20547;-61
2022/01/23 08:39:38;;;;;;;59.97;34.90;;;;;;;3.97;95.86;103584.00;5032986;28;20096;-63
2022/01/23 08:42:08;;;;;;;54.75;34.85;;;;;;;3.95;96.29;103588.47;5031309;28;20123;-61
2022/01/23 08:44:34;;;;;;;55.83;34.47;;;;;;;4.02;96.43;103593.47;5032340;28;20079;-61
2022/01/23 08:47:01;;;;;;;56.97;35.33;;;;;;;4.05;96.61;103595.13;5032005;28;20473;-63
2022/01/23 08:49:28;;;;;;;55.75;34.78;;;;;;;4.03;96.79;103592.56;5033096;28;20026;-62
2022/01/23 08:51:55;;;;;;;53.47;35.33;;;;;;;4.03;96.69;103597.81;5035152;28;20420;-60
2022/01/23 08:54:21;;;;;;;52.88;34.10;;;;;;;4.02;96.52;103603.97;5033757;28;20024;-60
2022/01/23 08:56:46;;;;;;;53.17;33.95;;;;;;;4.03;96.30;103597.81;5034501;28;20264;-60
2022/01/23 08:59:11;;;;;;;58.15;34.95;;;;;;;4.06;97.06;103596.84;5035047;28;20535;-58
2022/01/23 09:01:37;;;;;;;55.72;34.45;;;;;;;4.09;96.45;103601.16;5035195;28;20029;-61
2022/01/23 09:04:04;;;;;;;52.80;34.50;;;;;;;4.09;96.70;103604.63;5038736;28;20041;-62
2022/01/23 09:06:29;;;;;;;56.33;35.15;;;;;;;4.08;96.72;103600.28;5037565;28;20037;-58
2022/01/23 09:08:55;;;;;;;58.95;37.20;;;;;;;4.12;96.23;103604.53;5038914;28;20031;-59
2022/01/23 09:14:20;;;;;;;55.45;34.90;;;;;;;4.17;96.82;103601.75;5045062;28;20103;-59
2022/01/23 09:16:45;;;;;;;54.47;34.72;;;;;;;4.19;96.43;103601.69;5042982;28;20051;-58
2022/01/23 09:19:11;;;;;;;54.17;33.33;;;;;;;4.22;96.07;103596.31;5034112;28;20491;-60
2022/01/23 09:21:38;;;;;;;57.75;34.55;;;;;;;4.25;96.11;103596.25;5034558;28;20472;-58
2022/01/23 09:24:05;;;;;;;54.85;34.15;;;;;;;4.28;95.07;103593.50;5036393;28;20033;-58
2022/01/23 09:26:31;;;;;;;51.47;34.03;;;;;;;4.28;94.84;103596.13;5035870;28;20048;-59
2022/01/23 09:29:00;;;;;;;53.90;33.88;;;;;;;4.30;94.71;103597.78;5035991;28;20048;-59
2022/01/23 09:31:34;;;;;;;57.50;34.42;;;;;;;4.33;95.29;103594.19;5036211;28;20499;-58
2022/01/23 09:33:59;;;;;;;52.25;34.38;;;;;;;4.36;95.06;103593.25;5038066;28;20056;-59
2022/01/23 09:36:25;;;;;;;53.33;33.25;;;;;;;4.36;94.64;103596.75;5037033;28;20571;-58
2022/01/23 09:38:51;;;;;;;55.10;33.78;;;;;;;4.36;94.74;103596.75;5034051;28;20033;-64
2022/01/23 09:41:20;;;;;;;53.08;33.70;;;;;;;4.39;95.21;103596.63;5037435;28;20408;-60
2022/01/23 09:43:47;;;;;;;54.22;34.15;;;;;;;4.40;94.68;103590.44;5035848;28;20048;-60
2022/01/23 09:46:13;;;;;;;55.63;34.85;;;;;;;4.42;95.11;103604.41;5032538;28;20040;-63
2022/01/23 09:48:44;;;;;;;52.78;34.00;;;;;;;4.46;94.57;103604.28;5036244;28;20048;-61
2022/01/23 09:51:10;;;;;;;58.55;34.22;;;;;;;4.47;94.43;103600.75;5035451;28;20025;-58
2022/01/23 09:53:39;;;;;;;53.65;34.70;;;;;;;4.49;94.72;103606.81;5037618;28;20033;-60
2022/01/23 09:56:05;;;;;;;57.20;35.42;;;;;;;4.52;94.58;103614.59;5038108;28;20060;-58
2022/01/23 09:58:32;;;;;;;52.92;34.00;;;;;;;4.51;94.48;103615.50;5043240;28;20112;-60
2022/01/23 10:00:59;;;;;;;51.60;34.35;;;;;;;4.51;93.79;103618.13;5040401;28;20527;-59
2022/01/23 10:03:24;;;;;;;52.55;33.25;;;;;;;4.54;93.70;103618.03;5034492;28;20030;-59
2022/01/23 10:05:55;;;;;;;52.67;33.33;;;;;;;4.57;93.60;103617.91;5029890;28;20411;-59
2022/01/23 10:08:22;;;;;;;50.67;33.40;;;;;;;4.59;94.06;103621.34;5031563;28;20032;-59
2022/01/23 10:10:54;;;;;;;51.30;33.55;;;;;;;4.61;94.44;103614.28;5036781;28;20564;-60
2022/01/23 10:13:26;;;;;;;54.03;33.85;;;;;;;4.65;94.18;103615.91;5038829;28;20684;-58
2022/01/23 10:15:52;;;;;;;55.25;33.97;;;;;;;4.65;94.27;103618.53;5034554;28;20029;-60
2022/01/23 10:18:20;;;;;;;54.65;34.33;;;;;;;4.66;94.38;103611.50;5036592;28;20051;-60
2022/01/23 10:20:46;;;;;;;51.97;34.28;;;;;;;4.71;94.29;103620.06;5036527;28;20052;-62
2022/01/23 10:23:13;;;;;;;48.92;32.83;;;;;;;4.74;93.89;103613.84;5048114;28;20032;-60
2022/01/23 10:25:41;;;;;;;57.47;33.50;;;;;;;4.74;93.83;103613.84;5038122;28;20040;-61
2022/01/23 10:28:09;;;;;;;50.92;33.15;;;;;;;4.76;93.35;103612.03;5038639;28;20025;-61
2022/01/23 10:30:43;;;;;;;50.75;33.38;;;;;;;4.75;92.81;103605.03;5044688;28;20497;-61
2022/01/23 10:33:10;;;;;;;49.60;31.35;;;;;;;4.75;92.67;103610.31;5045594;28;20029;-60
2022/01/23 10:36:09;;;;;;;52.00;33.63;;;;;;;4.80;92.47;103603.13;5046422;28;20472;-61
2022/01/23 10:38:45;;;;;;;49.60;32.92;;;;;;;4.79;92.69;103609.28;5038810;28;20040;-61
2022/01/23 10:41:29;;;;;;;52.92;33.15;;;;;;;4.78;93.14;103605.78;5042892;28;20025;-61
2022/01/23 10:47:44;;;;;;;51.83;32.28;;;;;;;4.87;93.00;103612.50;5042584;28;20044;-61
2022/01/23 10:50:13;;;;;;;50.50;32.55;;;;;;;4.92;92.51;103617.59;5038416;28;20128;-61
2022/01/23 10:52:45;;;;;;;47.53;31.85;;;;;;;4.91;92.06;103610.59;5040623;28;20063;-61
2022/01/23 10:55:10;;;;;;;49.45;31.83;;;;;;;4.92;91.92;103600.03;5047230;28;20217;-62
2022/01/23 10:57:47;;;;;;;47.30;32.22;;;;;;;4.90;92.57;103599.25;5044840;28;20041;-61
2022/01/23 11:00:26;;;;;;;52.80;31.77;;;;;;;4.94;92.15;103592.09;5044571;28;20036;-61
2022/01/23 11:02:52;;;;;;;47.50;31.58;;;;;;;4.93;91.32;103593.88;5044920;28;20458;-61
2022/01/23 11:05:22;;;;;;;49.42;32.22;;;;;;;4.93;91.95;103601.75;5044689;28;20048;-61
2022/01/23 11:07:49;;;;;;;50.20;31.85;;;;;;;4.95;91.87;103601.72;5042530;28;20068;-61
2022/01/23 11:10:20;;;;;;;52.13;32.63;;;;;;;4.94;91.67;103603.47;5053579;28;20037;-62
2022/01/23 11:18:02;;;;;;;47.58;30.88;;;;;;;5.03;91.48;103599.63;5038824;28;20103;-61
2022/01/23 11:20:38;;;;;;;50.78;32.17;;;;;;;5.06;92.11;103590.78;5043333;28;20033;-61
2022/01/23 11:23:19;;;;;;;49.28;32.65;;;;;;;5.08;92.89;103588.97;5045833;28;20393;-61
2022/01/23 11:26:04;;;;;;;52.13;32.70;;;;;;;5.11;92.49;103591.47;5035025;28;20053;-61
2022/01/23 11:28:33;;;;;;;51.45;31.48;;;;;;;5.07;91.90;103584.59;5038748;28;20515;-61
2022/01/23 11:30:58;;;;;;;53.13;32.55;;;;;;;5.09;91.99;103588.06;5042465;28;20056;-61
2022/01/23 11:33:25;;;;;;;53.97;32.70;;;;;;;5.08;91.08;103581.09;5045003;28;20475;-61
2022/01/23 11:35:51;;;;;;;47.90;30.23;;;;;;;5.14;91.34;103580.84;5039767;28;20570;-61
2022/01/23 11:38:21;;;;;;;49.72;30.83;;;;;;;5.13;90.97;103579.09;5051788;28;20597;-61
2022/01/23 11:54:45;;;;;;;45.45;29.65;;;;;;;5.29;91.05;103573.28;5002556;28;20079;-62
2022/01/23 11:57:41;;;;;;;47.97;29.40;;;;;;;5.33;91.20;103567.00;5040026;28;20445;-63
2022/01/23 12:00:19;;;;;;;54.78;30.52;;;;;;;5.31;91.49;103561.78;5048226;28;20029;-63
2022/01/23 12:03:14;;;;;;;45.92;29.00;;;;;;;5.37;90.94;103571.19;5042688;28;20037;-63
2022/01/23 12:05:43;;;;;;;43.15;28.90;;;;;;;5.35;90.11;103562.50;5041441;28;20052;-63
2022/01/23 12:08:33;;;;;;;43.00;28.23;;;;;;;5.39;88.98;103566.75;5041699;28;20507;-63
2022/01/23 12:16:23;;;;;;;44.05;28.67;;;;;;;5.42;89.35;103556.09;5036278;28;20034;-64
2022/01/23 12:18:49;;;;;;;41.05;25.88;;;;;;;5.42;88.97;103553.47;5038536;28;20039;-63
2022/01/23 12:21:27;;;;;;;41.83;27.17;;;;;;;5.44;87.76;103550.78;5036988;28;20032;-63
2022/01/23 12:23:58;;;;;;;43.13;27.75;;;;;;;5.42;88.69;103542.94;5035990;28;20033;-63
2022/01/23 12:26:23;;;;;;;41.00;27.50;;;;;;;5.47;87.67;103546.25;5040952;28;20029;-63
2022/01/23 12:28:48;;;;;;;42.35;26.25;;;;;;;5.47;88.05;103546.25;5038499;28;20038;-63
2022/01/23 12:31:13;;;;;;;40.65;26.25;;;;;;;5.46;87.41;103543.66;5040009;28;20056;-63
2022/01/23 12:33:38;;;;;;;38.40;25.88;;;;;;;5.46;87.15;103543.66;5039571;28;20461;-63
2022/01/23 12:36:19;;;;;;;44.78;28.30;;;;;;;5.52;87.67;103549.56;5040508;28;20057;-63
2022/01/23 12:38:55;;;;;;;42.65;28.48;;;;;;;5.51;88.20;103542.59;5039708;28;20032;-63
2022/01/23 12:41:30;;;;;;;42.47;27.60;;;;;;;5.49;87.72;103544.41;5038193;28;20036;-63
2022/01/23 12:44:07;;;;;;;42.70;27.63;;;;;;;5.50;87.85;103543.50;5041329;28;20124;-63
2022/01/23 12:46:34;;;;;;;42.28;29.08;;;;;;;5.48;88.24;103534.78;5039167;28;20025;-63
2022/01/23 12:49:25;;;;;;;42.75;28.50;;;;;;;5.54;89.02;103535.47;5039357;28;20485;-63
2022/01/23 12:52:15;;;;;;;45.22;29.92;;;;;;;5.58;88.85;103542.34;5037683;28;20029;-63
2022/01/23 12:54:47;;;;;;;47.47;31.40;;;;;;;5.57;88.62;103540.63;5029504;28;20041;-63
2022/01/23 12:57:14;;;;;;;48.90;30.35;;;;;;;5.58;89.00;103531.81;5041976;28;20025;-62
2022/01/23 12:59:42;;;;;;;43.10;28.13;;;;;;;5.60;88.48;103529.94;5043176;28;20171;-63
2022/01/23 13:02:13;;;;;;;42.03;28.25;;;;;;;5.61;88.15;103526.41;5038225;28;20024;-63
2022/01/23 13:04:49;;;;;;;41.30;27.65;;;;;;;5.64;87.65;103527.13;5043229;28;20072;-63
2022/01/23 13:10:29;;;;;;;40.92;27.23;;;;;;;5.69;87.74;103519.06;5031897;28;20172;-63
2022/01/23 13:13:06;;;;;;;38.38;26.90;;;;;;;5.70;87.60;103514.63;5033245;28;20042;-63
2022/01/23 13:32:09;;;;;;;40.03;26.50;;;;;;;5.76;85.96;103502.09;5033393;28;20527;-62
2022/01/23 13:34:41;;;;;;;41.63;28.10;;;;;;;5.75;85.58;103513.53;5035852;28;20096;-60
2022/01/23 13:37:08;;;;;;;41.05;26.85;;;;;;;5.75;85.06;103508.28;5034645;28;20031;-58
2022/01/23 13:39:50;;;;;;;39.90;27.17;;;;;;;5.69;84.38;103508.53;5034648;28;20104;-61
2022/01/23 13:49:47;;;;;;;41.15;28.25;;;;;;;5.72;85.69;103518.91;5040411;28;20037;-60
2022/01/23 14:00:32;;;;;;;41.97;29.25;;;;;;;5.77;86.31;103495.03;5040131;28;20154;-63
2022/01/23 14:02:47;;;;;;;43.92;30.08;;;;;;;5.78;86.02;103497.59;5034837;28;20818;-64
2022/01/23 14:05:17;;;;;;;47.00;29.92;;;;;;;5.74;85.75;103500.44;5039114;28;20041;-63
2022/01/23 14:07:48;;;;;;;46.97;29.90;;;;;;;5.74;86.47;103485.50;5043161;28;20037;-59
2022/01/23 14:10:16;;;;;;;47.47;30.98;;;;;;;5.75;86.38;103486.34;5036795;28;20308;-58
2022/01/23 14:12:42;;;;;;;45.28;30.25;;;;;;;5.70;86.05;103483.91;5038328;28;20411;-60
2022/01/23 14:15:16;;;;;;;43.38;30.60;;;;;;;5.68;86.36;103480.50;5042363;28;20045;-63
2022/01/23 14:17:54;;;;;;;46.47;31.13;;;;;;;5.67;86.90;103489.28;5039551;28;20123;-58
2022/01/23 14:20:19;;;;;;;48.50;31.67;;;;;;;5.67;87.08;103488.44;5043724;28;20124;-60
2022/01/23 14:22:47;;;;;;;50.92;31.70;;;;;;;5.68;88.21;103491.03;5046728;28;20457;-58
2022/01/23 14:25:20;;;;;;;45.83;31.90;;;;;;;5.67;86.54;103494.56;5038993;28;20040;-57
2022/01/23 14:27:59;;;;;;;46.88;30.15;;;;;;;5.65;86.56;103496.41;5041346;28;20120;-58
2022/01/23 14:30:27;;;;;;;45.92;30.23;;;;;;;5.65;86.72;103493.78;5038743;28;20032;-58
2022/01/23 14:32:53;;;;;;;47.33;31.48;;;;;;;5.65;87.88;103499.03;5041033;28;20460;-57
2022/01/23 14:35:18;;;;;;;49.90;32.42;;;;;;;5.63;87.57;103504.34;5045782;28;20040;-58
2022/01/23 14:37:45;;;;;;;50.08;33.50;;;;;;;5.67;88.18;103510.34;5039937;28;20392;-59
2022/01/23 14:40:26;;;;;;;47.53;33.15;;;;;;;5.66;87.75;103498.13;5039428;28;20762;-58
2022/01/23 14:43:12;;;;;;;48.38;32.78;;;;;;;5.70;87.28;103510.25;5036489;28;20057;-58
2022/01/23 14:45:41;;;;;;;49.95;31.88;;;;;;;5.69;87.55;103500.63;5037101;28;20040;-58